sensor_id;sensor_type;location;lat;lon;timestamp;pressure;altitude;pressure_sealevel;temperature
24740;BMP280;45234;48.148;17.128;2024-01-10T00:02:19;101555.88;;;-3.59
24740;BMP280;45234;48.148;17.128;2024-01-10T00:04:46;101564.34;;;-3.60
24740;BMP280;45234;48.148;17.128;2024-01-10T00:07:13;101561.03;;;-3.62
24740;BMP280;45234;48.148;17.128;2024-01-10T00:09:40;101555.97;;;-3.62
24740;BMP280;45234;48.148;17.128;2024-01-10T00:12:07;101556.69;;;-3.59
24740;BMP280;45234;48.148;17.128;2024-01-10T00:14:34;101557.44;;;-3.57
24740;BMP280;45234;48.148;17.128;2024-01-10T00:17:01;101554.91;;;-3.57
24740;BMP280;45234;48.148;17.128;2024-01-10T00:19:28;101550.56;;;-3.53
24740;BMP280;45234;48.148;17.128;2024-01-10T00:21:55;101557.97;;;-3.47
24740;BMP280;45234;48.148;17.128;2024-01-10T00:24:22;101554.38;;;-3.42
24740;BMP280;45234;48.148;17.128;2024-01-10T00:26:49;101544.00;;;-3.35
24740;BMP280;45234;48.148;17.128;2024-01-10T00:29:16;101545.44;;;-3.28
24740;BMP280;45234;48.148;17.128;2024-01-10T00:31:43;101537.75;;;-3.27
24740;BMP280;45234;48.148;17.128;2024-01-10T00:34:10;101541.94;;;-3.26
24740;BMP280;45234;48.148;17.128;2024-01-10T00:36:37;101544.38;;;-3.23
24740;BMP280;45234;48.148;17.128;2024-01-10T00:39:04;101536.69;;;-3.21
24740;BMP280;45234;48.148;17.128;2024-01-10T00:41:31;101538.31;;;-3.19
24740;BMP280;45234;48.148;17.128;2024-01-10T00:43:58;101537.44;;;-3.18
24740;BMP280;45234;48.148;17.128;2024-01-10T00:46:25;101539.19;;;-3.20
24740;BMP280;45234;48.148;17.128;2024-01-10T00:48:51;101545.19;;;-3.22
24740;BMP280;45234;48.148;17.128;2024-01-10T00:51:18;101552.97;;;-3.27
24740;BMP280;45234;48.148;17.128;2024-01-10T00:53:45;101562.28;;;-3.27
24740;BMP280;45234;48.148;17.128;2024-01-10T00:56:13;101562.34;;;-3.29
24740;BMP280;45234;48.148;17.128;2024-01-10T00:58:40;101558.09;;;-3.28
24740;BMP280;45234;48.148;17.128;2024-01-10T01:01:08;101562.38;;;-3.30
24740;BMP280;45234;48.148;17.128;2024-01-10T01:03:35;101565.22;;;-3.38
24740;BMP280;45234;48.148;17.128;2024-01-10T01:06:03;101570.66;;;-3.47
24740;BMP280;45234;48.148;17.128;2024-01-10T01:08:30;101562.34;;;-3.52
24740;BMP280;45234;48.148;17.128;2024-01-10T01:10:56;101564.16;;;-3.56
24740;BMP280;45234;48.148;17.128;2024-01-10T01:13:23;101571.78;;;-3.56
24740;BMP280;45234;48.148;17.128;2024-01-10T01:15:50;101566.75;;;-3.57
24740;BMP280;45234;48.148;17.128;2024-01-10T01:18:17;101568.63;;;-3.62
24740;BMP280;45234;48.148;17.128;2024-01-10T01:20:46;101571.22;;;-3.64
24740;BMP280;45234;48.148;17.128;2024-01-10T01:23:15;101564.44;;;-3.63
24740;BMP280;45234;48.148;17.128;2024-01-10T01:25:55;101568.81;;;-3.67
24740;BMP280;45234;48.148;17.128;2024-01-10T01:28:22;101573.34;;;-3.77
24740;BMP280;45234;48.148;17.128;2024-01-10T01:30:49;101567.53;;;-3.79
24740;BMP280;45234;48.148;17.128;2024-01-10T01:33:16;101565.88;;;-3.80
24740;BMP280;45234;48.148;17.128;2024-01-10T01:35:43;101568.47;;;-3.81
24740;BMP280;45234;48.148;17.128;2024-01-10T01:38:10;101566.63;;;-3.78
24740;BMP280;45234;48.148;17.128;2024-01-10T01:40:37;101570.06;;;-3.79
24740;BMP280;45234;48.148;17.128;2024-01-10T01:43:22;101569.44;;;-3.85
24740;BMP280;45234;48.148;17.128;2024-01-10T01:45:54;101567.84;;;-3.88
24740;BMP280;45234;48.148;17.128;2024-01-10T01:48:23;101578.97;;;-3.92
24740;BMP280;45234;48.148;17.128;2024-01-10T01:50:55;101571.38;;;-3.92
24740;BMP280;45234;48.148;17.128;2024-01-10T01:53:22;101564.63;;;-3.91
24740;BMP280;45234;48.148;17.128;2024-01-10T01:55:50;101567.09;;;-3.90
24740;BMP280;45234;48.148;17.128;2024-01-10T01:58:18;101568.84;;;-3.92
24740;BMP280;45234;48.148;17.128;2024-01-10T02:00:46;101568.84;;;-3.92
24740;BMP280;45234;48.148;17.128;2024-01-10T02:03:13;101566.19;;;-3.89
24740;BMP280;45234;48.148;17.128;2024-01-10T02:05:41;101560.47;;;-3.94
24740;BMP280;45234;48.148;17.128;2024-01-10T02:08:08;101562.13;;;-3.93
24740;BMP280;45234;48.148;17.128;2024-01-10T02:10:35;101564.66;;;-3.93
24740;BMP280;45234;48.148;17.128;2024-01-10T02:13:03;101563.88;;;-3.95
24740;BMP280;45234;48.148;17.128;2024-01-10T02:15:30;101570.78;;;-4.00
24740;BMP280;45234;48.148;17.128;2024-01-10T02:18:17;101573.09;;;-3.92
24740;BMP280;45234;48.148;17.128;2024-01-10T02:20:44;101573.84;;;-3.90
24740;BMP280;45234;48.148;17.128;2024-01-10T02:23:12;101578.28;;;-3.97
24740;BMP280;45234;48.148;17.128;2024-01-10T02:25:40;101573.28;;;-3.99
24740;BMP280;45234;48.148;17.128;2024-01-10T02:28:07;101570.78;;;-4.00
24740;BMP280;45234;48.148;17.128;2024-01-10T02:30:36;101573.22;;;-3.97
24740;BMP280;45234;48.148;17.128;2024-01-10T02:33:04;101579.28;;;-4.01
24740;BMP280;45234;48.148;17.128;2024-01-10T02:35:31;101576.94;;;-4.07
24740;BMP280;45234;48.148;17.128;2024-01-10T02:37:59;101579.38;;;-4.04
24740;BMP280;45234;48.148;17.128;2024-01-10T02:40:26;101584.34;;;-4.01
24740;BMP280;45234;48.148;17.128;2024-01-10T02:42:53;101586.47;;;-3.89
24740;BMP280;45234;48.148;17.128;2024-01-10T02:45:20;101584.88;;;-3.91
24740;BMP280;45234;48.148;17.128;2024-01-10T02:47:48;101571.31;;;-3.90
24740;BMP280;45234;48.148;17.128;2024-01-10T02:50:15;101574.00;;;-3.95
24740;BMP280;45234;48.148;17.128;2024-01-10T02:52:43;101579.06;;;-3.95
24740;BMP280;45234;48.148;17.128;2024-01-10T02:55:10;101577.44;;;-3.96
24740;BMP280;45234;48.148;17.128;2024-01-10T02:57:37;101575.09;;;-4.02
24740;BMP280;45234;48.148;17.128;2024-01-10T03:00:06;101574.31;;;-4.04
24740;BMP280;45234;48.148;17.128;2024-01-10T03:02:34;101570.91;;;-4.03
24740;BMP280;45234;48.148;17.128;2024-01-10T03:05:01;101569.25;;;-4.04
24740;BMP280;45234;48.148;17.128;2024-01-10T03:07:29;101564.78;;;-3.98
24740;BMP280;45234;48.148;17.128;2024-01-10T03:09:56;101569.91;;;-3.99
24740;BMP280;45234;48.148;17.128;2024-01-10T03:12:23;101562.25;;;-3.98
24740;BMP280;45234;48.148;17.128;2024-01-10T03:14:50;101562.25;;;-3.98
24740;BMP280;45234;48.148;17.128;2024-01-10T03:17:17;101560.66;;;-4.00
24740;BMP280;45234;48.148;17.128;2024-01-10T03:19:44;101564.09;;;-4.01
24740;BMP280;45234;48.148;17.128;2024-01-10T03:22:12;101568.38;;;-4.03
24740;BMP280;45234;48.148;17.128;2024-01-10T03:24:39;101566.81;;;-4.07
24740;BMP280;45234;48.148;17.128;2024-01-10T03:27:07;101571.13;;;-4.09
24740;BMP280;45234;48.148;17.128;2024-01-10T03:29:34;101566.81;;;-4.07
24740;BMP280;45234;48.148;17.128;2024-01-10T03:32:02;101560.97;;;-4.09
24740;BMP280;45234;48.148;17.128;2024-01-10T03:34:29;101554.16;;;-4.07
24740;BMP280;45234;48.148;17.128;2024-01-10T03:36:56;101557.44;;;-4.05
24740;BMP280;45234;48.148;17.128;2024-01-10T03:39:23;101561.59;;;-4.03
24740;BMP280;45234;48.148;17.128;2024-01-10T03:41:50;101553.19;;;-4.03
24740;BMP280;45234;48.148;17.128;2024-01-10T03:44:17;101558.25;;;-4.03
24740;BMP280;45234;48.148;17.128;2024-01-10T03:46:44;101556.53;;;-4.03
24740;BMP280;45234;48.148;17.128;2024-01-10T03:49:11;101561.59;;;-4.03
24740;BMP280;45234;48.148;17.128;2024-01-10T03:51:39;101552.31;;;-4.02
24740;BMP280;45234;48.148;17.128;2024-01-10T03:54:07;101552.31;;;-4.02
24740;BMP280;45234;48.148;17.128;2024-01-10T03:56:34;101548.16;;;-4.05
24740;BMP280;45234;48.148;17.128;2024-01-10T03:59:01;101549.22;;;-4.10
24740;BMP280;45234;48.148;17.128;2024-01-10T04:01:29;101550.09;;;-4.11
24740;BMP280;45234;48.148;17.128;2024-01-10T04:03:56;101554.38;;;-4.13
24740;BMP280;45234;48.148;17.128;2024-01-10T04:06:23;101561.09;;;-4.12
24740;BMP280;45234;48.148;17.128;2024-01-10T04:08:50;101561.09;;;-4.12
24740;BMP280;45234;48.148;17.128;2024-01-10T04:11:17;101561.09;;;-4.12
24740;BMP280;45234;48.148;17.128;2024-01-10T04:13:44;101559.44;;;-4.13
24740;BMP280;45234;48.148;17.128;2024-01-10T04:16:11;101564.59;;;-4.16
24740;BMP280;45234;48.148;17.128;2024-01-10T04:18:39;101561.19;;;-4.15
24740;BMP280;45234;48.148;17.128;2024-01-10T04:21:06;101559.00;;;-4.26
24740;BMP280;45234;48.148;17.128;2024-01-10T04:23:33;101560.63;;;-4.23
24740;BMP280;45234;48.148;17.128;2024-01-10T04:26:01;101558.28;;;-4.30
24740;BMP280;45234;48.148;17.128;2024-01-10T04:28:30;101558.28;;;-4.30
24740;BMP280;45234;48.148;17.128;2024-01-10T04:30:57;101561.16;;;-4.40
24740;BMP280;45234;48.148;17.128;2024-01-10T04:33:24;101548.56;;;-4.42
24740;BMP280;45234;48.148;17.128;2024-01-10T04:35:51;101547.00;;;-4.46
24740;BMP280;45234;48.148;17.128;2024-01-10T04:38:18;101558.00;;;-4.47
24740;BMP280;45234;48.148;17.128;2024-01-10T04:40:45;101555.25;;;-4.41
24740;BMP280;45234;48.148;17.128;2024-01-10T04:43:12;101559.41;;;-4.38
24740;BMP280;45234;48.148;17.128;2024-01-10T04:45:39;101541.78;;;-4.41
24740;BMP280;45234;48.148;17.128;2024-01-10T04:48:06;101542.72;;;-4.44
24740;BMP280;45234;48.148;17.128;2024-01-10T04:50:34;101547.84;;;-4.45
24740;BMP280;45234;48.148;17.128;2024-01-10T04:53:01;101545.31;;;-4.45
24740;BMP280;45234;48.148;17.128;2024-01-10T04:55:28;101555.25;;;-4.41
24740;BMP280;45234;48.148;17.128;2024-01-10T04:57:55;101554.59;;;-4.46
24740;BMP280;45234;48.148;17.128;2024-01-10T05:00:22;101551.34;;;-4.49
24740;BMP280;45234;48.148;17.128;2024-01-10T05:02:57;101547.97;;;-4.50
24740;BMP280;45234;48.148;17.128;2024-01-10T05:05:24;101555.69;;;-4.53
24740;BMP280;45234;48.148;17.128;2024-01-10T05:07:51;101557.34;;;-4.52
24740;BMP280;45234;48.148;17.128;2024-01-10T05:10:18;101556.50;;;-4.53
24740;BMP280;45234;48.148;17.128;2024-01-10T05:12:45;101555.69;;;-4.53
24740;BMP280;45234;48.148;17.128;2024-01-10T05:15:12;101553.25;;;-4.56
24740;BMP280;45234;48.148;17.128;2024-01-10T05:17:39;101557.44;;;-4.55
24740;BMP280;45234;48.148;17.128;2024-01-10T05:20:06;101556.56;;;-4.54
24740;BMP280;45234;48.148;17.128;2024-01-10T05:22:35;101555.78;;;-4.56
24740;BMP280;45234;48.148;17.128;2024-01-10T05:25:02;101551.63;;;-4.57
24740;BMP280;45234;48.148;17.128;2024-01-10T05:27:31;101552.50;;;-4.60
24740;BMP280;45234;48.148;17.128;2024-01-10T05:29:58;101559.25;;;-4.60
24740;BMP280;45234;48.148;17.128;2024-01-10T05:32:27;101546.56;;;-4.57
24740;BMP280;45234;48.148;17.128;2024-01-10T05:34:54;101554.75;;;-4.50
24740;BMP280;45234;48.148;17.128;2024-01-10T05:37:21;101553.88;;;-4.49
24740;BMP280;45234;48.148;17.128;2024-01-10T05:39:49;101557.03;;;-4.43
24740;BMP280;45234;48.148;17.128;2024-01-10T05:42:16;101562.78;;;-4.38
24740;BMP280;45234;48.148;17.128;2024-01-10T05:44:43;101543.28;;;-4.34
24740;BMP280;45234;48.148;17.128;2024-01-10T05:47:11;101558.22;;;-4.28
24740;BMP280;45234;48.148;17.128;2024-01-10T05:49:38;101560.00;;;-4.30
24740;BMP280;45234;48.148;17.128;2024-01-10T05:52:05;101560.16;;;-4.35
24740;BMP280;45234;48.148;17.128;2024-01-10T05:54:32;101556.81;;;-4.35
24740;BMP280;45234;48.148;17.128;2024-01-10T05:56:59;101546.91;;;-4.43
24740;BMP280;45234;48.148;17.128;2024-01-10T05:59:27;101551.13;;;-4.43
24740;BMP280;45234;48.148;17.128;2024-01-10T06:01:56;101553.63;;;-4.42
24740;BMP280;45234;48.148;17.128;2024-01-10T06:04:23;101554.50;;;-4.43
24740;BMP280;45234;48.148;17.128;2024-01-10T06:06:50;101556.25;;;-4.45
24740;BMP280;45234;48.148;17.128;2024-01-10T06:09:17;101558.78;;;-4.45
24740;BMP280;45234;48.148;17.128;2024-01-10T06:11:49;101552.16;;;-4.49
24740;BMP280;45234;48.148;17.128;2024-01-10T06:14:16;101560.69;;;-4.52
24740;BMP280;45234;48.148;17.128;2024-01-10T06:16:44;101564.75;;;-4.47
24740;BMP280;45234;48.148;17.128;2024-01-10T06:19:12;101567.25;;;-4.46
24740;BMP280;45234;48.148;17.128;2024-01-10T06:21:39;101563.78;;;-4.43
24740;BMP280;45234;48.148;17.128;2024-01-10T06:24:06;101572.22;;;-4.43
24740;BMP280;45234;48.148;17.128;2024-01-10T06:26:35;101568.91;;;-4.45
24740;BMP280;45234;48.148;17.128;2024-01-10T06:29:02;101572.09;;;-4.40
24740;BMP280;45234;48.148;17.128;2024-01-10T06:31:29;101570.28;;;-4.35
24740;BMP280;45234;48.148;17.128;2024-01-10T06:33:55;101570.28;;;-4.35
24740;BMP280;45234;48.148;17.128;2024-01-10T06:36:22;101580.50;;;-4.38
24740;BMP280;45234;48.148;17.128;2024-01-10T06:38:49;101585.56;;;-4.38
24740;BMP280;45234;48.148;17.128;2024-01-10T06:41:16;101583.97;;;-4.42
24740;BMP280;45234;48.148;17.128;2024-01-10T06:43:43;101587.44;;;-4.44
24740;BMP280;45234;48.148;17.128;2024-01-10T06:46:11;101591.75;;;-4.46
24740;BMP280;45234;48.148;17.128;2024-01-10T06:48:38;101592.66;;;-4.49
24740;BMP280;45234;48.148;17.128;2024-01-10T06:51:15;101595.19;;;-4.49
24740;BMP280;45234;48.148;17.128;2024-01-10T06:53:42;101594.22;;;-4.45
24740;BMP280;45234;48.148;17.128;2024-01-10T06:56:10;101588.09;;;-4.39
24740;BMP280;45234;48.148;17.128;2024-01-10T06:58:38;101602.31;;;-4.34
24740;BMP280;45234;48.148;17.128;2024-01-10T07:01:05;101595.47;;;-4.32
24740;BMP280;45234;48.148;17.128;2024-01-10T07:03:40;101592.84;;;-4.29
24740;BMP280;45234;48.148;17.128;2024-01-10T07:06:07;101594.19;;;-4.18
24740;BMP280;45234;48.148;17.128;2024-01-10T07:08:34;101591.25;;;-4.06
24740;BMP280;45234;48.148;17.128;2024-01-10T07:11:01;101594.06;;;-3.89
24740;BMP280;45234;48.148;17.128;2024-01-10T07:13:28;101597.16;;;-3.81
24740;BMP280;45234;48.148;17.128;2024-01-10T07:15:55;101596.22;;;-3.55
24740;BMP280;45234;48.148;17.128;2024-01-10T07:18:22;101596.34;;;-3.34
24740;BMP280;45234;48.148;17.128;2024-01-10T07:20:48;101603.47;;;-3.21
24740;BMP280;45234;48.148;17.128;2024-01-10T07:23:16;101593.78;;;-3.11
24740;BMP280;45234;48.148;17.128;2024-01-10T07:25:43;101604.25;;;-2.97
24740;BMP280;45234;48.148;17.128;2024-01-10T07:28:10;101593.94;;;-2.92
24740;BMP280;45234;48.148;17.128;2024-01-10T07:30:37;101602.31;;;-2.90
24740;BMP280;45234;48.148;17.128;2024-01-10T07:33:04;101605.88;;;-2.94
24740;BMP280;45234;48.148;17.128;2024-01-10T07:35:31;101607.72;;;-2.77
24740;BMP280;45234;48.148;17.128;2024-01-10T07:37:58;101604.41;;;-2.79
24740;BMP280;45234;48.148;17.128;2024-01-10T07:40:26;101608.31;;;-2.71
24740;BMP280;45234;48.148;17.128;2024-01-10T07:42:53;101608.97;;;-2.45
24740;BMP280;45234;48.148;17.128;2024-01-10T07:45:20;101612.19;;;-2.40
24740;BMP280;45234;48.148;17.128;2024-01-10T07:47:47;101616.63;;;-2.25
24740;BMP280;45234;48.148;17.128;2024-01-10T07:50:14;101616.97;;;-2.12
24740;BMP280;45234;48.148;17.128;2024-01-10T07:52:43;101615.13;;;-2.09
24740;BMP280;45234;48.148;17.128;2024-01-10T07:55:10;101620.28;;;-2.10
24740;BMP280;45234;48.148;17.128;2024-01-10T07:57:37;101620.28;;;-2.10
24740;BMP280;45234;48.148;17.128;2024-01-10T08:00:06;101619.00;;;-2.20
24740;BMP280;45234;48.148;17.128;2024-01-10T08:02:40;101619.91;;;-2.21
24740;BMP280;45234;48.148;17.128;2024-01-10T08:05:07;101626.84;;;-2.06
24740;BMP280;45234;48.148;17.128;2024-01-10T08:07:39;101625.78;;;-2.01
24740;BMP280;45234;48.148;17.128;2024-01-10T08:10:08;101620.31;;;-1.91
24740;BMP280;45234;48.148;17.128;2024-01-10T08:12:37;101620.34;;;-1.73
24740;BMP280;45234;48.148;17.128;2024-01-10T08:15:13;101631.63;;;-1.40
24740;BMP280;45234;48.148;17.128;2024-01-10T08:17:41;101639.22;;;-1.20
24740;BMP280;45234;48.148;17.128;2024-01-10T08:20:09;101633.28;;;-1.02
24740;BMP280;45234;48.148;17.128;2024-01-10T08:22:38;101626.97;;;-0.76
24740;BMP280;45234;48.148;17.128;2024-01-10T08:25:05;101634.38;;;-0.54
24740;BMP280;45234;48.148;17.128;2024-01-10T08:27:33;101638.59;;;-0.36
24740;BMP280;45234;48.148;17.128;2024-01-10T08:30:03;101644.47;;;-0.16
24740;BMP280;45234;48.148;17.128;2024-01-10T08:32:32;101650.28;;;0.03
24740;BMP280;45234;48.148;17.128;2024-01-10T08:35:00;101654.16;;;0.10
24740;BMP280;45234;48.148;17.128;2024-01-10T08:37:28;101656.09;;;0.22
24740;BMP280;45234;48.148;17.128;2024-01-10T08:39:55;101656.47;;;0.32
24740;BMP280;45234;48.148;17.128;2024-01-10T08:42:22;101656.91;;;0.39
24740;BMP280;45234;48.148;17.128;2024-01-10T08:44:49;101661.53;;;0.48
24740;BMP280;45234;48.148;17.128;2024-01-10T08:47:16;101662.13;;;0.53
24740;BMP280;45234;48.148;17.128;2024-01-10T08:49:43;101663.53;;;0.43
24740;BMP280;45234;48.148;17.128;2024-01-10T08:52:10;101658.72;;;0.21
24740;BMP280;45234;48.148;17.128;2024-01-10T08:54:38;101665.06;;;-0.04
24740;BMP280;45234;48.148;17.128;2024-01-10T08:57:05;101658.72;;;-0.30
24740;BMP280;45234;48.148;17.128;2024-01-10T08:59:32;101650.72;;;-0.58
24740;BMP280;45234;48.148;17.128;2024-01-10T09:01:59;101656.69;;;-0.76
24740;BMP280;45234;48.148;17.128;2024-01-10T09:04:25;101659.81;;;-0.89
24740;BMP280;45234;48.148;17.128;2024-01-10T09:06:52;101651.84;;;-1.00
24740;BMP280;45234;48.148;17.128;2024-01-10T09:09:21;101656.00;;;-1.16
24740;BMP280;45234;48.148;17.128;2024-01-10T09:11:48;101650.03;;;-1.34
24740;BMP280;45234;48.148;17.128;2024-01-10T09:14:15;101655.34;;;-1.40
24740;BMP280;45234;48.148;17.128;2024-01-10T09:16:42;101654.66;;;-1.44
24740;BMP280;45234;48.148;17.128;2024-01-10T09:19:09;101650.75;;;-1.51
24740;BMP280;45234;48.148;17.128;2024-01-10T09:21:39;101640.97;;;-1.60
24740;BMP280;45234;48.148;17.128;2024-01-10T09:24:07;101647.91;;;-1.63
24740;BMP280;45234;48.148;17.128;2024-01-10T09:26:54;101622.00;;;-1.72
24740;BMP280;45234;48.148;17.128;2024-01-10T09:29:22;101639.97;;;-1.56
24740;BMP280;45234;48.148;17.128;2024-01-10T09:31:49;101638.91;;;-1.52
24740;BMP280;45234;48.148;17.128;2024-01-10T09:34:16;101635.56;;;-1.52
24740;BMP280;45234;48.148;17.128;2024-01-10T09:36:43;101640.63;;;-1.52
24740;BMP280;45234;48.148;17.128;2024-01-10T09:39:10;101632.03;;;-1.50
24740;BMP280;45234;48.148;17.128;2024-01-10T09:41:47;101630.41;;;-1.51
24740;BMP280;45234;48.148;17.128;2024-01-10T09:44:18;101628.56;;;-1.47
24740;BMP280;45234;48.148;17.128;2024-01-10T09:46:53;101624.91;;;-1.41
24740;BMP280;45234;48.148;17.128;2024-01-10T09:49:21;101624.59;;;-1.34
24740;BMP280;45234;48.148;17.128;2024-01-10T09:51:50;101620.00;;;-1.26
24740;BMP280;45234;48.148;17.128;2024-01-10T09:54:19;101617.44;;;-1.26
24740;BMP280;45234;48.148;17.128;2024-01-10T09:56:47;101610.63;;;-1.25
24740;BMP280;45234;48.148;17.128;2024-01-10T09:59:15;101617.97;;;-1.19
24740;BMP280;45234;48.148;17.128;2024-01-10T10:01:44;101617.13;;;-1.01
24740;BMP280;45234;48.148;17.128;2024-01-10T10:04:12;101605.63;;;-0.91
24740;BMP280;45234;48.148;17.128;2024-01-10T10:06:39;101608.63;;;-0.82
24740;BMP280;45234;48.148;17.128;2024-01-10T10:09:07;101602.94;;;-0.70
24740;BMP280;45234;48.148;17.128;2024-01-10T10:11:36;101606.03;;;-0.64
24740;BMP280;45234;48.148;17.128;2024-01-10T10:14:29;101596.59;;;-0.62
24740;BMP280;45234;48.148;17.128;2024-01-10T10:17:17;101601.72;;;-0.46
24740;BMP280;45234;48.148;17.128;2024-01-10T10:19:44;101597.41;;;-0.26
24740;BMP280;45234;48.148;17.128;2024-01-10T10:22:11;101607.97;;;-0.17
24740;BMP280;45234;48.148;17.128;2024-01-10T10:24:39;101603.41;;;-0.10
24740;BMP280;45234;48.148;17.128;2024-01-10T10:27:11;101599.94;;;-0.09
24740;BMP280;45234;48.148;17.128;2024-01-10T10:29:39;101598.84;;;-0.21
24740;BMP280;45234;48.148;17.128;2024-01-10T10:32:06;101598.44;;;-0.13
24740;BMP280;45234;48.148;17.128;2024-01-10T10:34:35;101603.59;;;0.03
24740;BMP280;45234;48.148;17.128;2024-01-10T10:37:02;101596.38;;;0.11
24740;BMP280;45234;48.148;17.128;2024-01-10T10:39:29;101596.47;;;0.25
24740;BMP280;45234;48.148;17.128;2024-01-10T10:41:56;101595.22;;;0.16
24740;BMP280;45234;48.148;17.128;2024-01-10T10:44:25;101587.41;;;0.19
24740;BMP280;45234;48.148;17.128;2024-01-10T10:46:54;101593.75;;;0.28
24740;BMP280;45234;48.148;17.128;2024-01-10T10:49:46;101575.63;;;0.33
24740;BMP280;45234;48.148;17.128;2024-01-10T10:52:18;101579.72;;;0.51
24740;BMP280;45234;48.148;17.128;2024-01-10T10:54:47;101564.91;;;0.42
24740;BMP280;45234;48.148;17.128;2024-01-10T10:57:16;101567.41;;;0.27
24740;BMP280;45234;48.148;17.128;2024-01-10T10:59:45;101568.25;;;0.28
24740;BMP280;45234;48.148;17.128;2024-01-10T11:02:16;101571.00;;;0.39
24740;BMP280;45234;48.148;17.128;2024-01-10T11:04:47;101566.88;;;0.52
24740;BMP280;45234;48.148;17.128;2024-01-10T11:07:14;101564.09;;;0.57
24740;BMP280;45234;48.148;17.128;2024-01-10T11:09:43;101551.91;;;0.62
24740;BMP280;45234;48.148;17.128;2024-01-10T11:12:22;101560.56;;;0.59
24740;BMP280;45234;48.148;17.128;2024-01-10T11:18:09;101547.31;;;0.53
24740;BMP280;45234;48.148;17.128;2024-01-10T11:21:23;101527.06;;;0.50
24740;BMP280;45234;48.148;17.128;2024-01-10T11:23:59;101534.22;;;0.59
24740;BMP280;45234;48.148;17.128;2024-01-10T11:26:26;101528.38;;;0.57
24740;BMP280;45234;48.148;17.128;2024-01-10T11:28:54;101527.81;;;0.52
24740;BMP280;45234;48.148;17.128;2024-01-10T11:31:30;101529.72;;;0.48
24740;BMP280;45234;48.148;17.128;2024-01-10T11:34:01;101516.69;;;0.53
24740;BMP280;45234;48.148;17.128;2024-01-10T11:36:32;101513.53;;;0.64
24740;BMP280;45234;48.148;17.128;2024-01-10T11:39:02;101508.75;;;0.73
24740;BMP280;45234;48.148;17.128;2024-01-10T11:41:36;101508.97;;;0.84
24740;BMP280;45234;48.148;17.128;2024-01-10T11:46:49;101503.44;;;0.62
24740;BMP280;45234;48.148;17.128;2024-01-10T11:49:20;101506.66;;;0.66
24740;BMP280;45234;48.148;17.128;2024-01-10T11:51:49;101500.72;;;0.65
24740;BMP280;45234;48.148;17.128;2024-01-10T11:57:22;101497.41;;;0.63
24740;BMP280;45234;48.148;17.128;2024-01-10T11:59:53;101495.63;;;0.65
24740;BMP280;45234;48.148;17.128;2024-01-10T12:02:23;101495.84;;;0.76
24740;BMP280;45234;48.148;17.128;2024-01-10T12:04:54;101489.47;;;0.83
24740;BMP280;45234;48.148;17.128;2024-01-10T12:07:22;101485.66;;;0.91
24740;BMP280;45234;48.148;17.128;2024-01-10T12:09:50;101483.03;;;0.92
24740;BMP280;45234;48.148;17.128;2024-01-10T12:12:17;101485.66;;;0.91
24740;BMP280;45234;48.148;17.128;2024-01-10T12:14:45;101484.84;;;0.90
24740;BMP280;45234;48.148;17.128;2024-01-10T12:17:13;101482.38;;;0.88
24740;BMP280;45234;48.148;17.128;2024-01-10T12:19:40;101481.38;;;0.91
24740;BMP280;45234;48.148;17.128;2024-01-10T12:22:13;101472.91;;;0.91
24740;BMP280;45234;48.148;17.128;2024-01-10T12:24:47;101473.53;;;0.94
24740;BMP280;45234;48.148;17.128;2024-01-10T12:27:19;101475.19;;;0.95
24740;BMP280;45234;48.148;17.128;2024-01-10T12:29:50;101474.63;;;0.90
24740;BMP280;45234;48.148;17.128;2024-01-10T12:32:20;101470.00;;;0.97
24740;BMP280;45234;48.148;17.128;2024-01-10T12:35:02;101473.63;;;0.93
24740;BMP280;45234;48.148;17.128;2024-01-10T12:37:30;101473.44;;;0.96
24740;BMP280;45234;48.148;17.128;2024-01-10T12:39:57;101475.28;;;0.94
24740;BMP280;45234;48.148;17.128;2024-01-10T12:42:24;101467.25;;;0.85
24740;BMP280;45234;48.148;17.128;2024-01-10T12:44:51;101476.72;;;0.83
24740;BMP280;45234;48.148;17.128;2024-01-10T12:47:19;101465.44;;;0.87
24740;BMP280;45234;48.148;17.128;2024-01-10T12:49:47;101467.25;;;0.85
24740;BMP280;45234;48.148;17.128;2024-01-10T12:52:14;101461.38;;;0.83
24740;BMP280;45234;48.148;17.128;2024-01-10T12:54:46;101465.34;;;0.89
24740;BMP280;45234;48.148;17.128;2024-01-10T12:57:12;101463.25;;;0.96
24740;BMP280;45234;48.148;17.128;2024-01-10T12:59:39;101466.53;;;0.98
24740;BMP280;45234;48.148;17.128;2024-01-10T13:02:06;101466.53;;;0.98
24740;BMP280;45234;48.148;17.128;2024-01-10T13:04:33;101468.34;;;0.96
24740;BMP280;45234;48.148;17.128;2024-01-10T13:07:00;101462.25;;;0.98
24740;BMP280;45234;48.148;17.128;2024-01-10T13:09:28;101467.28;;;1.00
24740;BMP280;45234;48.148;17.128;2024-01-10T13:11:55;101463.25;;;0.96
24740;BMP280;45234;48.148;17.128;2024-01-10T13:14:21;101465.88;;;0.94
24740;BMP280;45234;48.148;17.128;2024-01-10T13:16:48;101464.25;;;0.93
24740;BMP280;45234;48.148;17.128;2024-01-10T13:19:25;101461.88;;;0.90
24740;BMP280;45234;48.148;17.128;2024-01-10T13:21:53;101459.22;;;0.92
24740;BMP280;45234;48.148;17.128;2024-01-10T13:24:20;101460.63;;;0.97
24740;BMP280;45234;48.148;17.128;2024-01-10T13:26:49;101458.59;;;1.02
24740;BMP280;45234;48.148;17.128;2024-01-10T13:29:16;101459.25;;;1.06
24740;BMP280;45234;48.148;17.128;2024-01-10T13:31:43;101455.81;;;1.07
24740;BMP280;45234;48.148;17.128;2024-01-10T13:34:10;101457.25;;;1.11
24740;BMP280;45234;48.148;17.128;2024-01-10T13:36:39;101462.03;;;1.17
24740;BMP280;45234;48.148;17.128;2024-01-10T13:39:06;101453.25;;;1.07
24740;BMP280;45234;48.148;17.128;2024-01-10T13:41:34;101458.22;;;0.94
24740;BMP280;45234;48.148;17.128;2024-01-10T13:44:01;101457.03;;;0.85
24740;BMP280;45234;48.148;17.128;2024-01-10T13:46:28;101460.66;;;0.81
24740;BMP280;45234;48.148;17.128;2024-01-10T13:48:55;101453.28;;;0.77
24740;BMP280;45234;48.148;17.128;2024-01-10T13:51:22;101449.34;;;0.71
24740;BMP280;45234;48.148;17.128;2024-01-10T13:53:50;101455.09;;;0.75
24740;BMP280;45234;48.148;17.128;2024-01-10T13:56:17;101446.44;;;0.77
24740;BMP280;45234;48.148;17.128;2024-01-10T13:58:44;101452.28;;;0.79
24740;BMP280;45234;48.148;17.128;2024-01-10T14:01:10;101440.34;;;0.80
24740;BMP280;45234;48.148;17.128;2024-01-10T14:03:37;101454.91;;;0.78